Oak Grove, Virginia
Current Conditions -  °F | °C
As of 12:15 AM on Thursday 23 Oct 2014 (Local Time) from KXSA Reporting Station
Overcast Overcast  
Wind Chill: 54°   Ceiling: 4100
Heat Index: 54°   Visibility: 10mi
Dew Point: 41°   Wind: 8mph
Humidity: 62%   Direction: 290°WNW
Pressure: 29.92"   Gusts: NA
Location:  38.184°N, 76.9988°W
Report Text: KXSA 230415Z AUTO 29007KT 10SM OVC041 12/05 A2992 RMK AO2 T01210051
Loading
Personal Weather Stations






























Interactive Weather Map
Tropical Storm Tracking
New forecast layout! Learn more

10-Day Weather Forecast

Advertisements
Track Severe Weather on mobile